KNEW/NEW METAR and TAF weather

Enter ICAO airport designator
Station Type Date Time Source
KNEW METAR 2019/08/24 08:53 UTC NOAA

KNEW 240853Z AUTO 00000KT 10SM CLR 27/24 A2998 RMK AO2 SLP146 T02670244 53001


Station Type Date Time Source
KNEW Decoded METAR 2019/08/24 08:53 UTC NOAA

Station name not available
Aug 24, 2019 - 04:53 AM EDT / 2019.08.24 0853 UTC
Wind: Calm:0
Visibility: 10 mile(s):0
Sky conditions: clear
Temperature: 80.1 F (26.7 C)
Dew Point: 75.9 F (24.4 C)
Relative Humidity: 87%
Pressure (altimeter): 29.98 in. Hg (1015 hPa)
Pressure tendency: 0.00 inches (0.1 hPa) higher than three hours ago
ob: KNEW 240853Z AUTO 00000KT 10SM CLR 27/24 A2998 RMK AO2 SLP146 T02670244 53001
cycle: 9

Station Type Date Time Source
KNEW TAF 2019/08/24 06:22 UTC NOAA

TAF KNEW 240520Z 2406/2506 15004KT P6SM BKN250
FM241200 VRB03KT P6SM VCTS SCT025CB BKN200
FM241800 12005KT P6SM SHRA VCTS SCT030CB BKN150
FM242200 17005KT P6SM SHRA VCTS OVC200CB
FM250000 20005KT P6SM OVC140

Example: see airport list